PWSweather.com
Personal Weather Stations
Station Observations
WATERF01
WaterfordIE

WaterfordIE

Lat: 52.2412507, Lon: -7.1414691

Elevation: 65

Station Type: Davis Vantage Vue

www.waterfordweather.com

High Low Average
Temperature 74.3°F23.5°C 62.8°F17.1°C 67.0°F19.4°C
Dew Point 64.2°F17.9°C 57.3°F14.1°C 60.7°F15.9°C
Winds 8.1 mph 13.0 kmh Calm Calm 3.0 mph W4.8 kmh W
Wind Gusts 12.7 mph20.4 kmh -- 5.0 mph8.0 kmh
Humidity 88% 69% 81%
Pressure 30.11 in1019.6 mb 30.06 in1017.9 mb -
Precipitation 0.02 in0.5 mm - -
Hour Temp Dew Point Humidity Winds Wind Gusts Pressure Precip Precip Rate Daily Precip Total
12:00 AM 64.9°F18.3°C 60.9°F16.1°C 87% Calm Calm -- 30.09 in1019.0 mb - 0.00 in0.0 mm 0.00 in0.0 mm
12:10 AM 65.0°F18.3°C 61.0°F16.1°C 87% Calm Calm -- 30.09 in1019.0 mb - 0.00 in0.0 mm 0.00 in0.0 mm
12:20 AM 64.9°F18.3°C 60.9°F16.1°C 87% Calm Calm -- 30.09 in1019.0 mb - 0.00 in0.0 mm 0.00 in0.0 mm
12:30 AM 64.8°F18.2°C 60.8°F16.0°C 87% Calm Calm -- 30.09 in1019.0 mb - 0.00 in0.0 mm 0.00 in0.0 mm
12:40 AM 64.8°F18.2°C 60.9°F16.1°C 87% Calm Calm -- 30.09 in1019.0 mb - 0.00 in0.0 mm 0.00 in0.0 mm
12:50 AM 64.9°F18.3°C 61.0°F16.1°C 87% Calm Calm -- 30.09 in1019.0 mb - 0.00 in0.0 mm 0.00 in0.0 mm
01:00 AM 64.9°F18.3°C 60.9°F16.1°C 87% Calm Calm -- 30.09 in1019.0 mb - 0.00 in0.0 mm 0.00 in0.0 mm
01:10 AM 64.8°F18.2°C 60.9°F16.1°C 87% Calm Calm -- 30.08 in1018.6 mb - 0.00 in0.0 mm 0.00 in0.0 mm
01:20 AM 64.7°F18.2°C 60.7°F15.9°C 87% Calm Calm -- 30.08 in1018.6 mb - 0.00 in0.0 mm 0.00 in0.0 mm
01:30 AM 64.6°F18.1°C 60.6°F15.9°C 87% Calm Calm -- 30.08 in1018.6 mb - 0.00 in0.0 mm 0.00 in0.0 mm
01:40 AM 64.3°F17.9°C 60.4°F15.8°C 87% Calm Calm -- 30.08 in1018.6 mb - 0.00 in0.0 mm 0.00 in0.0 mm
01:50 AM 64.3°F17.9°C 60.3°F15.7°C 87% Calm Calm -- 30.08 in1018.6 mb - 0.00 in0.0 mm 0.00 in0.0 mm
02:00 AM 64.3°F17.9°C 60.3°F15.7°C 87% Calm Calm -- 30.08 in1018.6 mb - 0.00 in0.0 mm 0.00 in0.0 mm
02:10 AM 64.4°F18.0°C 60.4°F15.8°C 87% Calm Calm -- 30.08 in1018.6 mb - 0.00 in0.0 mm 0.00 in0.0 mm
02:20 AM 64.4°F18.0°C 60.4°F15.8°C 87% Calm Calm -- 30.08 in1018.6 mb - 0.00 in0.0 mm 0.00 in0.0 mm
02:30 AM 64.2°F17.9°C 60.2°F15.7°C 87% Calm Calm -- 30.08 in1018.6 mb - 0.00 in0.0 mm 0.00 in0.0 mm
02:40 AM 64.2°F17.9°C 60.2°F15.7°C 87% Calm Calm -- 30.08 in1018.6 mb - 0.00 in0.0 mm 0.00 in0.0 mm
02:50 AM 64.1°F17.8°C 60.2°F15.7°C 87% Calm Calm -- 30.08 in1018.6 mb - 0.00 in0.0 mm 0.00 in0.0 mm
03:00 AM 64.0°F17.8°C 60.1°F15.6°C 87% Calm Calm -- 30.08 in1018.6 mb - 0.00 in0.0 mm 0.00 in0.0 mm
03:10 AM 64.0°F17.8°C 60.1°F15.6°C 87% Calm Calm -- 30.08 in1018.6 mb - 0.00 in0.0 mm 0.00 in0.0 mm
03:20 AM 64.2°F17.9°C 60.6°F15.9°C 88% Calm Calm -- 30.08 in1018.6 mb - 0.00 in0.0 mm 0.00 in0.0 mm
03:30 AM 64.4°F18.0°C 60.8°F16.0°C 88% Calm Calm -- 30.08 in1018.6 mb - 0.00 in0.0 mm 0.00 in0.0 mm
03:40 AM 64.4°F18.0°C 60.8°F16.0°C 88% Calm Calm -- 30.07 in1018.3 mb - 0.00 in0.0 mm 0.00 in0.0 mm
03:50 AM 64.3°F17.9°C 60.3°F15.7°C 87% Calm Calm -- 30.07 in1018.3 mb - 0.00 in0.0 mm 0.00 in0.0 mm
04:00 AM 64.2°F17.9°C 60.2°F15.7°C 87% Calm Calm -- 30.07 in1018.3 mb - 0.00 in0.0 mm 0.00 in0.0 mm
04:10 AM 64.1°F17.8°C 60.2°F15.7°C 87% Calm Calm -- 30.07 in1018.3 mb - 0.00 in0.0 mm 0.00 in0.0 mm
04:20 AM 64.1°F17.8°C 60.5°F15.8°C 88% Calm Calm -- 30.07 in1018.3 mb - 0.00 in0.0 mm 0.00 in0.0 mm
04:30 AM 64.2°F17.9°C 60.6°F15.9°C 88% 2.3 mph W3.7 kmh W 5.8 mph9.3 kmh 30.07 in1018.3 mb - 0.00 in0.0 mm 0.00 in0.0 mm
04:40 AM 64.3°F17.9°C 60.7°F15.9°C 88% 2.3 mph W3.7 kmh W 5.8 mph9.3 kmh 30.07 in1018.3 mb - 0.00 in0.0 mm 0.00 in0.0 mm
04:50 AM 64.3°F17.9°C 60.3°F15.7°C 87% 2.3 mph WNW3.7 kmh WNW 5.8 mph9.3 kmh 30.07 in1018.3 mb - 0.00 in0.0 mm 0.00 in0.0 mm
05:00 AM 64.2°F17.9°C 60.2°F15.7°C 87% 2.3 mph W3.7 kmh W 5.8 mph9.3 kmh 30.07 in1018.3 mb - 0.00 in0.0 mm 0.00 in0.0 mm
05:10 AM 64.1°F17.8°C 60.2°F15.7°C 87% 2.3 mph NW3.7 kmh NW 4.6 mph7.4 kmh 30.07 in1018.3 mb - 0.00 in0.0 mm 0.00 in0.0 mm
05:20 AM 63.9°F17.7°C 60.0°F15.6°C 87% 2.3 mph SW3.7 kmh SW 5.8 mph9.3 kmh 30.07 in1018.3 mb - 0.00 in0.0 mm 0.00 in0.0 mm
05:30 AM 63.9°F17.7°C 60.0°F15.6°C 87% 1.2 mph SW1.9 kmh SW 5.8 mph9.3 kmh 30.07 in1018.3 mb - 0.00 in0.0 mm 0.00 in0.0 mm
05:40 AM 63.8°F17.7°C 59.9°F15.5°C 87% 3.5 mph SW5.6 kmh SW 5.8 mph9.3 kmh 30.08 in1018.6 mb - 0.02 in0.5 mm 0.02 in0.5 mm
05:50 AM 63.7°F17.6°C 59.8°F15.4°C 87% 2.3 mph WSW3.7 kmh WSW 4.6 mph7.4 kmh 30.08 in1018.6 mb - 0.02 in0.5 mm 0.02 in0.5 mm
06:00 AM 63.7°F17.6°C 59.8°F15.4°C 87% 1.2 mph SW1.9 kmh SW 1.2 mph1.9 kmh 30.08 in1018.6 mb - 0.02 in0.5 mm 0.02 in0.5 mm
06:10 AM 63.7°F17.6°C 59.8°F15.4°C 87% 1.2 mph SW1.9 kmh SW 4.6 mph7.4 kmh 30.08 in1018.6 mb - 0.02 in0.5 mm 0.02 in0.5 mm
06:20 AM 63.7°F17.6°C 59.8°F15.4°C 87% 1.2 mph SW1.9 kmh SW 2.3 mph3.7 kmh 30.08 in1018.6 mb - 0.02 in0.5 mm 0.02 in0.5 mm
06:30 AM 63.9°F17.7°C 60.0°F15.6°C 87% Calm Calm -- 30.08 in1018.6 mb - 0.02 in0.5 mm 0.02 in0.5 mm
06:40 AM 64.2°F17.9°C 60.2°F15.7°C 87% Calm Calm -- 30.08 in1018.6 mb - 0.00 in0.0 mm 0.02 in0.5 mm
06:50 AM 64.3°F17.9°C 60.4°F15.8°C 87% Calm Calm -- 30.09 in1019.0 mb - 0.00 in0.0 mm 0.02 in0.5 mm
07:00 AM 64.5°F18.1°C 60.5°F15.8°C 87% Calm Calm -- 30.09 in1019.0 mb - 0.00 in0.0 mm 0.02 in0.5 mm
07:10 AM 64.6°F18.1°C 60.6°F15.9°C 87% Calm Calm 2.3 mph3.7 kmh 30.09 in1019.0 mb - 0.00 in0.0 mm 0.02 in0.5 mm
07:20 AM 64.8°F18.2°C 60.5°F15.8°C 86% Calm Calm 4.6 mph7.4 kmh 30.09 in1019.0 mb - 0.00 in0.0 mm 0.02 in0.5 mm
07:30 AM 65.1°F18.4°C 60.8°F16.0°C 86% Calm Calm -- 30.09 in1019.0 mb - 0.00 in0.0 mm 0.02 in0.5 mm
07:40 AM 65.3°F18.5°C 61.0°F16.1°C 86% 1.2 mph SW1.9 kmh SW 4.6 mph7.4 kmh 30.10 in1019.3 mb - 0.00 in0.0 mm 0.02 in0.5 mm
07:50 AM 65.3°F18.5°C 61.0°F16.1°C 86% Calm Calm -- 30.09 in1019.0 mb - 0.00 in0.0 mm 0.02 in0.5 mm
08:00 AM 65.4°F18.6°C 61.1°F16.2°C 86% Calm Calm -- 30.09 in1019.0 mb - 0.00 in0.0 mm 0.02 in0.5 mm
08:10 AM 65.6°F18.7°C 61.0°F16.1°C 85% 1.2 mph SW1.9 kmh SW 5.8 mph9.3 kmh 30.09 in1019.0 mb - 0.00 in0.0 mm 0.02 in0.5 mm
08:20 AM 65.6°F18.7°C 60.9°F16.1°C 85% Calm Calm -- 30.09 in1019.0 mb - 0.00 in0.0 mm 0.02 in0.5 mm
08:30 AM 66.0°F18.9°C 61.3°F16.3°C 85% Calm Calm -- 30.09 in1019.0 mb - 0.00 in0.0 mm 0.02 in0.5 mm
08:40 AM 66.5°F19.2°C 61.9°F16.6°C 85% Calm Calm -- 30.09 in1019.0 mb - 0.00 in0.0 mm 0.02 in0.5 mm
08:50 AM 67.0°F19.4°C 62.0°F16.7°C 84% Calm Calm -- 30.09 in1019.0 mb - 0.00 in0.0 mm 0.02 in0.5 mm
09:00 AM 67.1°F19.5°C 62.1°F16.7°C 84% Calm Calm -- 30.09 in1019.0 mb - 0.00 in0.0 mm 0.02 in0.5 mm
09:10 AM 67.8°F19.9°C 62.5°F16.9°C 83% 3.5 mph SW5.6 kmh SW 6.9 mph11.1 kmh 30.09 in1019.0 mb - 0.00 in0.0 mm 0.02 in0.5 mm
09:20 AM 68.2°F20.1°C 62.5°F16.9°C 82% 1.2 mph SSW1.9 kmh SSW 2.3 mph3.7 kmh 30.09 in1019.0 mb - 0.00 in0.0 mm 0.02 in0.5 mm
09:30 AM 68.5°F20.3°C 62.4°F16.9°C 81% 1.2 mph SSW1.9 kmh SSW 5.8 mph9.3 kmh 30.09 in1019.0 mb - 0.00 in0.0 mm 0.02 in0.5 mm
09:40 AM 69.3°F20.7°C 63.2°F17.3°C 81% 3.5 mph WSW5.6 kmh WSW 4.6 mph7.4 kmh 30.09 in1019.0 mb - 0.00 in0.0 mm 0.02 in0.5 mm
09:50 AM 69.8°F21.0°C 63.3°F17.4°C 80% 2.3 mph WSW3.7 kmh WSW 5.8 mph9.3 kmh 30.09 in1019.0 mb - 0.00 in0.0 mm 0.02 in0.5 mm
10:00 AM 69.9°F21.1°C 63.1°F17.3°C 79% Calm Calm 5.8 mph9.3 kmh 30.09 in1019.0 mb - 0.00 in0.0 mm 0.02 in0.5 mm
10:10 AM 70.2°F21.2°C 63.4°F17.4°C 79% 3.5 mph SW5.6 kmh SW 8.1 mph13.0 kmh 30.09 in1019.0 mb - 0.00 in0.0 mm 0.02 in0.5 mm
10:20 AM 70.1°F21.2°C 62.9°F17.2°C 78% 3.5 mph W5.6 kmh W 6.9 mph11.1 kmh 30.09 in1019.0 mb - 0.00 in0.0 mm 0.02 in0.5 mm
10:30 AM 69.4°F20.8°C 62.2°F16.8°C 78% 5.8 mph W9.3 kmh W 9.2 mph14.8 kmh 30.09 in1019.0 mb - 0.00 in0.0 mm 0.02 in0.5 mm
10:40 AM 68.9°F20.5°C 62.1°F16.7°C 79% 5.8 mph WNW9.3 kmh WNW 8.1 mph13.0 kmh 30.08 in1018.6 mb - 0.00 in0.0 mm 0.02 in0.5 mm
10:50 AM 68.8°F20.4°C 62.1°F16.7°C 79% 3.5 mph WNW5.6 kmh WNW 5.8 mph9.3 kmh 30.08 in1018.6 mb - 0.00 in0.0 mm 0.02 in0.5 mm
11:00 AM 69.6°F20.9°C 62.5°F16.9°C 78% 3.5 mph WSW5.6 kmh WSW 6.9 mph11.1 kmh 30.08 in1018.6 mb - 0.00 in0.0 mm 0.02 in0.5 mm
11:10 AM 70.1°F21.2°C 62.6°F17.0°C 77% 4.6 mph W7.4 kmh W 6.9 mph11.1 kmh 30.08 in1018.6 mb - 0.00 in0.0 mm 0.02 in0.5 mm
11:20 AM 70.5°F21.4°C 62.6°F17.0°C 76% 5.8 mph W9.3 kmh W 11.5 mph18.5 kmh 30.08 in1018.6 mb - 0.00 in0.0 mm 0.02 in0.5 mm
11:30 AM 70.5°F21.4°C 62.6°F17.0°C 76% 5.8 mph W9.3 kmh W 8.1 mph13.0 kmh 30.08 in1018.6 mb - 0.00 in0.0 mm 0.02 in0.5 mm
11:50 AM 70.6°F21.4°C 61.9°F16.6°C 74% 3.5 mph WSW5.6 kmh WSW 8.1 mph13.0 kmh 30.08 in1018.6 mb - 0.00 in0.0 mm 0.02 in0.5 mm
12:00 PM 71.3°F21.8°C 62.2°F16.8°C 73% 3.5 mph W5.6 kmh W 8.1 mph13.0 kmh 30.08 in1018.6 mb - 0.00 in0.0 mm 0.02 in0.5 mm
12:10 PM 71.6°F22.0°C 62.9°F17.2°C 74% 6.9 mph SW11.1 kmh SW 11.5 mph18.5 kmh 30.08 in1018.6 mb - 0.00 in0.0 mm 0.02 in0.5 mm
12:20 PM 71.6°F22.0°C 62.5°F16.9°C 73% 4.6 mph WSW7.4 kmh WSW 8.1 mph13.0 kmh 30.08 in1018.6 mb - 0.00 in0.0 mm 0.02 in0.5 mm
12:30 PM 71.6°F22.0°C 62.1°F16.7°C 72% 4.6 mph W7.4 kmh W 8.1 mph13.0 kmh 30.08 in1018.6 mb - 0.00 in0.0 mm 0.02 in0.5 mm
12:40 PM 72.3°F22.4°C 62.8°F17.1°C 72% 5.8 mph W9.3 kmh W 11.5 mph18.5 kmh 30.07 in1018.3 mb - 0.00 in0.0 mm 0.02 in0.5 mm
12:50 PM 72.6°F22.6°C 63.1°F17.3°C 72% 4.6 mph W7.4 kmh W 8.1 mph13.0 kmh 30.07 in1018.3 mb - 0.00 in0.0 mm 0.02 in0.5 mm
01:00 PM 73.3°F22.9°C 63.7°F17.6°C 72% 5.8 mph W9.3 kmh W 8.1 mph13.0 kmh 30.08 in1018.6 mb - 0.00 in0.0 mm 0.02 in0.5 mm
01:10 PM 73.7°F23.2°C 63.7°F17.6°C 71% 5.8 mph SW9.3 kmh SW 8.1 mph13.0 kmh 30.08 in1018.6 mb - 0.00 in0.0 mm 0.02 in0.5 mm
01:20 PM 73.5°F23.1°C 63.5°F17.5°C 71% 6.9 mph SSW11.1 kmh SSW 9.2 mph14.8 kmh 30.07 in1018.3 mb - 0.00 in0.0 mm 0.02 in0.5 mm
01:30 PM 73.8°F23.2°C 63.8°F17.7°C 71% 4.6 mph WSW7.4 kmh WSW 6.9 mph11.1 kmh 30.07 in1018.3 mb - 0.00 in0.0 mm 0.02 in0.5 mm
01:40 PM 73.9°F23.3°C 63.5°F17.5°C 70% 4.6 mph W7.4 kmh W 11.5 mph18.5 kmh 30.07 in1018.3 mb - 0.00 in0.0 mm 0.02 in0.5 mm
01:50 PM 74.0°F23.3°C 63.6°F17.6°C 70% 6.9 mph W11.1 kmh W 11.5 mph18.5 kmh 30.07 in1018.3 mb - 0.00 in0.0 mm 0.02 in0.5 mm
02:00 PM 73.9°F23.3°C 63.5°F17.5°C 70% 5.8 mph W9.3 kmh W 8.1 mph13.0 kmh 30.07 in1018.3 mb - 0.00 in0.0 mm 0.02 in0.5 mm
02:10 PM 74.1°F23.4°C 63.7°F17.6°C 70% 6.9 mph SW11.1 kmh SW 11.5 mph18.5 kmh 30.07 in1018.3 mb - 0.00 in0.0 mm 0.02 in0.5 mm
02:20 PM 74.2°F23.4°C 64.2°F17.9°C 71% 6.9 mph WSW11.1 kmh WSW 11.5 mph18.5 kmh 30.07 in1018.3 mb - 0.00 in0.0 mm 0.02 in0.5 mm
02:30 PM 74.3°F23.5°C 63.5°F17.5°C 69% 6.9 mph SW11.1 kmh SW 11.5 mph18.5 kmh 30.07 in1018.3 mb - 0.00 in0.0 mm 0.02 in0.5 mm
02:40 PM 74.1°F23.4°C 63.7°F17.6°C 70% 6.9 mph WSW11.1 kmh WSW 11.5 mph18.5 kmh 30.07 in1018.3 mb - 0.00 in0.0 mm 0.02 in0.5 mm
02:50 PM 73.1°F22.8°C 62.7°F17.1°C 70% 5.8 mph W9.3 kmh W 11.5 mph18.5 kmh 30.07 in1018.3 mb - 0.00 in0.0 mm 0.02 in0.5 mm
03:00 PM 72.6°F22.6°C 62.6°F17.0°C 71% 4.6 mph WSW7.4 kmh WSW 9.2 mph14.8 kmh 30.07 in1018.3 mb - 0.00 in0.0 mm 0.02 in0.5 mm
03:10 PM 71.7°F22.1°C 61.8°F16.6°C 71% 5.8 mph W9.3 kmh W 11.5 mph18.5 kmh 30.07 in1018.3 mb - 0.00 in0.0 mm 0.02 in0.5 mm
03:20 PM 70.5°F21.4°C 61.4°F16.3°C 73% 6.9 mph W11.1 kmh W 11.5 mph18.5 kmh 30.07 in1018.3 mb - 0.00 in0.0 mm 0.02 in0.5 mm
03:30 PM 71.4°F21.9°C 61.9°F16.6°C 72% 8.1 mph W13.0 kmh W 12.7 mph20.4 kmh 30.07 in1018.3 mb - 0.00 in0.0 mm 0.02 in0.5 mm
03:40 PM 71.0°F21.7°C 61.5°F16.4°C 72% 5.8 mph SW9.3 kmh SW 9.2 mph14.8 kmh 30.07 in1018.3 mb - 0.00 in0.0 mm 0.02 in0.5 mm
03:50 PM 70.9°F21.6°C 61.9°F16.6°C 73% 4.6 mph WNW7.4 kmh WNW 8.1 mph13.0 kmh 30.07 in1018.3 mb - 0.00 in0.0 mm 0.02 in0.5 mm
04:00 PM 69.7°F20.9°C 61.1°F16.2°C 74% 6.9 mph WSW11.1 kmh WSW 12.7 mph20.4 kmh 30.07 in1018.3 mb - 0.00 in0.0 mm 0.02 in0.5 mm
04:10 PM 68.4°F20.2°C 60.6°F15.9°C 76% 5.8 mph W9.3 kmh W 9.2 mph14.8 kmh 30.07 in1018.3 mb - 0.00 in0.0 mm 0.02 in0.5 mm
04:20 PM 68.4°F20.2°C 60.9°F16.1°C 77% 4.6 mph W7.4 kmh W 8.1 mph13.0 kmh 30.06 in1017.9 mb - 0.00 in0.0 mm 0.02 in0.5 mm
04:30 PM 69.0°F20.6°C 61.5°F16.4°C 77% 3.5 mph WNW5.6 kmh WNW 8.1 mph13.0 kmh 30.06 in1017.9 mb - 0.00 in0.0 mm 0.02 in0.5 mm
04:40 PM 69.2°F20.7°C 61.3°F16.3°C 76% 3.5 mph WNW5.6 kmh WNW 6.9 mph11.1 kmh 30.06 in1017.9 mb - 0.00 in0.0 mm 0.02 in0.5 mm
04:50 PM 69.2°F20.7°C 61.3°F16.3°C 76% 3.5 mph WNW5.6 kmh WNW 5.8 mph9.3 kmh 30.07 in1018.3 mb - 0.00 in0.0 mm 0.02 in0.5 mm
05:00 PM 69.0°F20.6°C 61.5°F16.4°C 77% 1.2 mph NW1.9 kmh NW 5.8 mph9.3 kmh 30.07 in1018.3 mb - 0.00 in0.0 mm 0.02 in0.5 mm
05:10 PM 69.4°F20.8°C 61.1°F16.2°C 75% 3.5 mph WNW5.6 kmh WNW 11.5 mph18.5 kmh 30.07 in1018.3 mb - 0.00 in0.0 mm 0.02 in0.5 mm
05:20 PM 69.4°F20.8°C 60.4°F15.8°C 73% 3.5 mph NW5.6 kmh NW 6.9 mph11.1 kmh 30.07 in1018.3 mb - 0.00 in0.0 mm 0.02 in0.5 mm
05:30 PM 69.0°F20.6°C 60.0°F15.6°C 73% 5.8 mph NW9.3 kmh NW 9.2 mph14.8 kmh 30.07 in1018.3 mb - 0.00 in0.0 mm 0.02 in0.5 mm
05:40 PM 68.6°F20.3°C 60.0°F15.6°C 74% 3.5 mph NW5.6 kmh NW 6.9 mph11.1 kmh 30.07 in1018.3 mb - 0.00 in0.0 mm 0.02 in0.5 mm
05:50 PM 68.6°F20.3°C 60.4°F15.8°C 75% 4.6 mph NNW7.4 kmh NNW 11.5 mph18.5 kmh 30.07 in1018.3 mb - 0.00 in0.0 mm 0.02 in0.5 mm
06:00 PM 68.4°F20.2°C 59.8°F15.4°C 74% 4.6 mph NW7.4 kmh NW 6.9 mph11.1 kmh 30.07 in1018.3 mb - 0.00 in0.0 mm 0.02 in0.5 mm
06:10 PM 68.3°F20.2°C 60.1°F15.6°C 75% 4.6 mph NNW7.4 kmh NNW 9.2 mph14.8 kmh 30.07 in1018.3 mb - 0.00 in0.0 mm 0.02 in0.5 mm
06:20 PM 67.9°F19.9°C 60.1°F15.6°C 76% 5.8 mph NW9.3 kmh NW 8.1 mph13.0 kmh 30.07 in1018.3 mb - 0.00 in0.0 mm 0.02 in0.5 mm
06:30 PM 67.7°F19.8°C 59.9°F15.5°C 76% 5.8 mph NNW9.3 kmh NNW 8.1 mph13.0 kmh 30.07 in1018.3 mb - 0.00 in0.0 mm 0.02 in0.5 mm
06:40 PM 67.4°F19.7°C 59.6°F15.3°C 76% 5.8 mph NW9.3 kmh NW 9.2 mph14.8 kmh 30.08 in1018.6 mb - 0.00 in0.0 mm 0.02 in0.5 mm
06:50 PM 66.8°F19.3°C 59.4°F15.2°C 77% 5.8 mph NW9.3 kmh NW 8.1 mph13.0 kmh 30.08 in1018.6 mb - 0.00 in0.0 mm 0.02 in0.5 mm
07:00 PM 66.5°F19.2°C 59.4°F15.2°C 78% 3.5 mph NNW5.6 kmh NNW 6.9 mph11.1 kmh 30.08 in1018.6 mb - 0.00 in0.0 mm 0.02 in0.5 mm
07:10 PM 66.4°F19.1°C 59.3°F15.2°C 78% 4.6 mph NNW7.4 kmh NNW 9.2 mph14.8 kmh 30.08 in1018.6 mb - 0.00 in0.0 mm 0.02 in0.5 mm
07:20 PM 66.2°F19.0°C 59.1°F15.1°C 78% 4.6 mph NNW7.4 kmh NNW 8.1 mph13.0 kmh 30.08 in1018.6 mb - 0.00 in0.0 mm 0.02 in0.5 mm
07:30 PM 66.1°F18.9°C 59.0°F15.0°C 78% 3.5 mph NW5.6 kmh NW 11.5 mph18.5 kmh 30.08 in1018.6 mb - 0.00 in0.0 mm 0.02 in0.5 mm
07:40 PM 65.8°F18.8°C 59.1°F15.1°C 79% 5.8 mph NW9.3 kmh NW 8.1 mph13.0 kmh 30.09 in1019.0 mb - 0.00 in0.0 mm 0.02 in0.5 mm
07:50 PM 65.7°F18.7°C 59.0°F15.0°C 79% 4.6 mph NW7.4 kmh NW 6.9 mph11.1 kmh 30.09 in1019.0 mb - 0.00 in0.0 mm 0.02 in0.5 mm
08:00 PM 65.5°F18.6°C 59.2°F15.1°C 80% 3.5 mph NW5.6 kmh NW 6.9 mph11.1 kmh 30.09 in1019.0 mb - 0.00 in0.0 mm 0.02 in0.5 mm
08:10 PM 65.4°F18.6°C 59.0°F15.0°C 80% 4.6 mph NW7.4 kmh NW 5.8 mph9.3 kmh 30.09 in1019.0 mb - 0.00 in0.0 mm 0.02 in0.5 mm
08:20 PM 65.1°F18.4°C 59.2°F15.1°C 81% 6.9 mph NW11.1 kmh NW 9.2 mph14.8 kmh 30.09 in1019.0 mb - 0.00 in0.0 mm 0.02 in0.5 mm
08:30 PM 64.9°F18.3°C 58.9°F14.9°C 81% 4.6 mph NNW7.4 kmh NNW 8.1 mph13.0 kmh 30.09 in1019.0 mb - 0.00 in0.0 mm 0.02 in0.5 mm
08:40 PM 64.8°F18.2°C 58.5°F14.7°C 80% 4.6 mph NNW7.4 kmh NNW 8.1 mph13.0 kmh 30.09 in1019.0 mb - 0.00 in0.0 mm 0.02 in0.5 mm
08:50 PM 64.7°F18.2°C 58.4°F14.7°C 80% 6.9 mph NW11.1 kmh NW 11.5 mph18.5 kmh 30.09 in1019.0 mb - 0.00 in0.0 mm 0.02 in0.5 mm
09:00 PM 64.5°F18.1°C 58.2°F14.6°C 80% 3.5 mph NW5.6 kmh NW 8.1 mph13.0 kmh 30.09 in1019.0 mb - 0.00 in0.0 mm 0.02 in0.5 mm
09:10 PM 64.5°F18.1°C 58.2°F14.6°C 80% 3.5 mph NW5.6 kmh NW 6.9 mph11.1 kmh 30.10 in1019.3 mb - 0.00 in0.0 mm 0.02 in0.5 mm
09:20 PM 64.4°F18.0°C 58.1°F14.5°C 80% 4.6 mph NW7.4 kmh NW 6.9 mph11.1 kmh 30.09 in1019.0 mb - 0.00 in0.0 mm 0.02 in0.5 mm
09:30 PM 64.3°F17.9°C 58.3°F14.6°C 81% 3.5 mph WNW5.6 kmh WNW 5.8 mph9.3 kmh 30.10 in1019.3 mb - 0.00 in0.0 mm 0.02 in0.5 mm
09:40 PM 64.1°F17.8°C 58.2°F14.6°C 81% 4.6 mph NW7.4 kmh NW 9.2 mph14.8 kmh 30.10 in1019.3 mb - 0.00 in0.0 mm 0.02 in0.5 mm
09:50 PM 64.1°F17.8°C 57.8°F14.3°C 80% 4.6 mph WNW7.4 kmh WNW 8.1 mph13.0 kmh 30.10 in1019.3 mb - 0.00 in0.0 mm 0.02 in0.5 mm
10:00 PM 64.1°F17.8°C 57.8°F14.3°C 80% 5.8 mph NNW9.3 kmh NNW 11.5 mph18.5 kmh 30.10 in1019.3 mb - 0.00 in0.0 mm 0.02 in0.5 mm
10:10 PM 63.9°F17.7°C 58.0°F14.4°C 81% 5.8 mph NNW9.3 kmh NNW 8.1 mph13.0 kmh 30.10 in1019.3 mb - 0.00 in0.0 mm 0.02 in0.5 mm
10:20 PM 63.7°F17.6°C 57.8°F14.3°C 81% 4.6 mph NW7.4 kmh NW 9.2 mph14.8 kmh 30.10 in1019.3 mb - 0.00 in0.0 mm 0.02 in0.5 mm
10:30 PM 63.5°F17.5°C 57.6°F14.2°C 81% Calm Calm 4.6 mph7.4 kmh 30.10 in1019.3 mb - 0.00 in0.0 mm 0.02 in0.5 mm
10:40 PM 63.3°F17.4°C 57.4°F14.1°C 81% 3.5 mph NNW5.6 kmh NNW 5.8 mph9.3 kmh 30.10 in1019.3 mb - 0.00 in0.0 mm 0.02 in0.5 mm
10:50 PM 63.3°F17.4°C 57.4°F14.1°C 81% 1.2 mph N1.9 kmh N 5.8 mph9.3 kmh 30.10 in1019.3 mb - 0.00 in0.0 mm 0.02 in0.5 mm
11:00 PM 63.3°F17.4°C 57.4°F14.1°C 81% Calm Calm -- 30.10 in1019.3 mb - 0.00 in0.0 mm 0.12 in3.0 mm
11:10 PM 63.2°F17.3°C 57.3°F14.1°C 81% 3.5 mph NNW5.6 kmh NNW 4.6 mph7.4 kmh 30.10 in1019.3 mb - 0.00 in0.0 mm 0.12 in3.0 mm
11:20 PM 63.0°F17.2°C 57.4°F14.1°C 82% Calm Calm 1.2 mph1.9 kmh 30.10 in1019.3 mb - 0.00 in0.0 mm 0.12 in3.0 mm
11:30 PM 62.9°F17.2°C 57.3°F14.1°C 82% 2.3 mph NNW3.7 kmh NNW 5.8 mph9.3 kmh 30.10 in1019.3 mb - 0.00 in0.0 mm 0.12 in3.0 mm
11:40 PM 62.9°F17.2°C 57.3°F14.1°C 82% Calm Calm -- 30.10 in1019.3 mb - 0.00 in0.0 mm 0.12 in3.0 mm
11:50 PM 62.8°F17.1°C 57.6°F14.2°C 83% Calm Calm 5.8 mph9.3 kmh 30.11 in1019.6 mb - 0.00 in0.0 mm 0.12 in3.0 mm